Time;durP1;ratioP1;P1;durP2;ratioP2;P2;SDS_P1;SDS_P2;PMS_P1;PMS_P2;Temp;Humidity;BMP_temperature;BMP_pressure;BME280_temperature;BME280_humidity;BME280_pressure;Samples;Min_cycle;Max_cycle;Signal;HPM_P1;HPM_P2
2024/04/17 00:01:16;;;;;;;2.60;1.57;;;6.80;99.90;;;;;;5276801;27;20655;-69
2024/04/17 00:03:42;;;;;;;2.87;1.53;;;6.80;99.90;;;;;;5276101;27;20262;-69
2024/04/17 00:06:07;;;;;;;4.53;2.00;;;6.80;99.90;;;;;;5277286;27;20227;-70
2024/04/17 00:08:33;;;;;;;7.90;1.43;;;6.70;99.90;;;;;;5276697;27;20723;-70
2024/04/17 00:10:58;;;;;;;1.20;1.20;;;6.60;99.90;;;;;;5267375;27;20720;-70
2024/04/17 00:13:24;;;;;;;1.33;0.90;;;6.40;99.90;;;;;;5276182;27;20243;-70
2024/04/17 00:15:49;;;;;;;2.30;1.20;;;6.20;99.90;;;;;;5272499;27;20265;-70
2024/04/17 00:18:16;;;;;;;1.33;0.97;;;6.10;99.90;;;;;;5272658;27;20261;-70
2024/04/17 00:20:41;;;;;;;1.00;0.90;;;6.00;99.90;;;;;;5276979;27;20228;-70
2024/04/17 00:23:07;;;;;;;1.00;0.90;;;6.00;99.90;;;;;;5276470;27;21048;-71
2024/04/17 00:25:32;;;;;;;1.50;0.83;;;6.00;99.90;;;;;;5277702;27;20760;-70
2024/04/17 00:27:58;;;;;;;2.10;1.53;;;6.00;99.90;;;;;;5261180;27;20225;-70
2024/04/17 00:30:23;;;;;;;1.77;1.57;;;6.00;99.90;;;;;;5275620;27;20223;-70
2024/04/17 00:32:49;;;;;;;1.60;1.30;;;5.90;99.90;;;;;;5254179;27;20247;-70
2024/04/17 00:35:15;;;;;;;1.27;1.17;;;5.90;99.90;;;;;;5273761;27;20227;-71
2024/04/17 00:37:40;;;;;;;1.93;1.50;;;5.90;99.90;;;;;;5276766;27;20568;-70
2024/04/17 00:40:07;;;;;;;1.63;1.20;;;5.90;99.90;;;;;;5276095;27;20601;-70
2024/04/17 00:42:32;;;;;;;1.50;1.40;;;5.90;99.90;;;;;;5274337;27;20243;-70
2024/04/17 00:44:58;;;;;;;1.40;1.30;;;5.90;99.90;;;;;;5276256;27;20458;-71
2024/04/17 00:47:24;;;;;;;1.40;1.30;;;5.90;99.90;;;;;;5275241;27;20275;-71
2024/04/17 00:49:50;;;;;;;1.33;1.23;;;5.90;99.90;;;;;;5276177;27;20222;-70
2024/04/17 00:52:17;;;;;;;1.60;1.50;;;6.00;99.90;;;;;;5261843;27;20464;-70
2024/04/17 00:54:43;;;;;;;1.50;1.40;;;6.00;99.90;;;;;;5276573;27;20506;-70
2024/04/17 00:57:09;;;;;;;1.50;1.20;;;6.00;99.90;;;;;;5266227;27;20460;-70
2024/04/17 00:59:34;;;;;;;2.37;1.60;;;6.00;99.90;;;;;;5274580;27;20805;-70
2024/04/17 01:02:00;;;;;;;1.40;1.30;;;6.00;99.90;;;;;;5269656;27;20219;-71
2024/04/17 01:04:25;;;;;;;2.00;1.33;;;6.00;99.90;;;;;;5265931;27;20364;-70
2024/04/17 01:06:51;;;;;;;1.33;1.17;;;6.10;99.90;;;;;;5257739;27;20234;-70
2024/04/17 01:09:16;;;;;;;1.93;1.50;;;6.10;99.90;;;;;;5276359;27;20228;-70
2024/04/17 01:11:42;;;;;;;1.67;1.57;;;6.20;99.90;;;;;;5275169;27;20270;-70
2024/04/17 01:14:08;;;;;;;1.70;1.30;;;6.20;99.90;;;;;;5276061;27;20227;-70
2024/04/17 01:16:35;;;;;;;1.70;1.60;;;6.20;99.90;;;;;;5276026;27;20219;-71
2024/04/17 01:19:01;;;;;;;1.73;1.30;;;6.30;99.90;;;;;;5276131;27;20474;-70
2024/04/17 01:21:27;;;;;;;2.37;1.57;;;6.30;99.90;;;;;;5275565;27;20499;-70
2024/04/17 01:23:53;;;;;;;3.30;1.50;;;6.30;99.90;;;;;;5276341;27;20475;-71
2024/04/17 01:26:19;;;;;;;2.27;1.90;;;6.30;99.90;;;;;;5264390;27;20266;-69
2024/04/17 01:28:45;;;;;;;1.60;1.30;;;6.40;99.90;;;;;;5273211;27;20821;-69
2024/04/17 01:31:11;;;;;;;3.63;1.50;;;6.40;99.90;;;;;;5275284;27;20462;-70
2024/04/17 01:33:37;;;;;;;1.50;1.40;;;6.30;99.90;;;;;;5276849;27;20463;-70
2024/04/17 01:36:04;;;;;;;1.50;1.40;;;6.20;99.90;;;;;;5276060;27;20950;-69
2024/04/17 01:38:29;;;;;;;1.53;1.43;;;6.20;99.90;;;;;;5276243;27;20488;-70
2024/04/17 01:40:55;;;;;;;1.97;1.60;;;6.10;99.90;;;;;;5275994;27;20450;-70
2024/04/17 01:43:21;;;;;;;1.97;1.77;;;6.10;99.90;;;;;;5276168;27;20342;-70
2024/04/17 01:45:47;;;;;;;1.70;1.60;;;6.10;99.90;;;;;;5265543;27;20224;-69
2024/04/17 01:48:13;;;;;;;1.73;1.63;;;6.10;99.90;;;;;;5255597;27;20270;-70
2024/04/17 01:50:39;;;;;;;2.00;1.80;;;6.00;99.90;;;;;;5273430;27;20530;-70
2024/04/17 01:53:04;;;;;;;1.60;1.50;;;6.10;99.90;;;;;;5274747;27;20458;-69
2024/04/17 01:55:30;;;;;;;1.60;1.50;;;6.10;99.90;;;;;;5356040;22;20785;-71
2024/04/17 01:57:55;;;;;;;1.73;1.63;;;6.00;99.90;;;;;;5335114;26;20225;-71
2024/04/17 02:00:21;;;;;;;1.90;1.70;;;6.00;99.90;;;;;;5344071;26;20229;-72
2024/04/17 02:02:46;;;;;;;1.60;1.50;;;6.10;99.90;;;;;;5344402;26;20224;-71
2024/04/17 02:05:12;;;;;;;2.80;2.00;;;6.10;99.90;;;;;;5336573;26;20234;-71
2024/04/17 02:07:38;;;;;;;2.20;2.00;;;6.20;99.90;;;;;;5310233;26;20332;-70
2024/04/17 02:10:04;;;;;;;2.10;1.93;;;6.10;99.90;;;;;;5309850;26;20277;-71
2024/04/17 02:12:29;;;;;;;1.63;1.53;;;6.20;99.90;;;;;;5342732;26;20236;-72
2024/04/17 02:14:55;;;;;;;2.20;2.00;;;6.20;99.90;;;;;;5324370;26;20260;-71
2024/04/17 02:17:20;;;;;;;2.07;1.87;;;6.30;99.90;;;;;;5316763;26;20269;-72
2024/04/17 02:19:46;;;;;;;4.00;1.80;;;6.20;99.90;;;;;;5344645;26;20233;-72
2024/04/17 02:22:11;;;;;;;2.30;2.10;;;6.20;99.90;;;;;;5339402;26;20258;-71
2024/04/17 02:24:37;;;;;;;2.30;2.10;;;6.20;99.90;;;;;;5313516;26;20723;-72
2024/04/17 02:27:03;;;;;;;2.23;2.13;;;6.20;99.90;;;;;;5334334;26;20225;-72
2024/04/17 02:29:28;;;;;;;1.57;1.47;;;6.20;99.90;;;;;;5330233;26;20230;-72
2024/04/17 02:31:54;;;;;;;4.13;2.03;;;6.20;99.90;;;;;;5315823;26;20327;-70
2024/04/17 02:34:21;;;;;;;2.77;2.57;;;6.20;99.90;;;;;;5341158;26;20237;-72
2024/04/17 02:36:46;;;;;;;2.40;2.20;;;6.20;99.90;;;;;;5322541;26;20856;-71
2024/04/17 02:39:12;;;;;;;2.30;2.10;;;6.30;99.90;;;;;;5313217;26;20472;-72
2024/04/17 02:41:37;;;;;;;2.10;1.90;;;6.30;99.90;;;;;;5317277;26;20340;-72
2024/04/17 02:44:03;;;;;;;2.37;2.20;;;6.20;99.90;;;;;;5327768;26;20574;-71
2024/04/17 02:46:29;;;;;;;2.83;2.00;;;6.20;99.90;;;;;;5327466;26;20281;-72
2024/04/17 02:48:54;;;;;;;2.50;2.30;;;6.20;99.90;;;;;;5341928;26;20835;-72
2024/04/17 02:51:20;;;;;;;2.57;2.37;;;6.20;99.90;;;;;;5345402;26;20237;-71
2024/04/17 02:53:45;;;;;;;2.50;2.00;;;6.10;99.90;;;;;;5332617;26;20345;-72
2024/04/17 02:56:11;;;;;;;2.67;2.40;;;6.20;99.90;;;;;;5345912;26;20229;-72
2024/04/17 02:58:36;;;;;;;2.47;2.27;;;6.10;99.90;;;;;;5325773;26;20234;-71
2024/04/17 03:01:11;;;;;;;2.67;1.60;;;6.10;99.90;;;;;;5318916;26;20237;-72
2024/04/17 03:03:37;;;;;;;3.50;1.73;;;6.10;99.90;;;;;;5327255;26;20269;-71
2024/04/17 03:06:03;;;;;;;1.80;1.70;;;6.00;99.90;;;;;;5312564;26;21024;-72
2024/04/17 03:08:28;;;;;;;1.87;1.77;;;6.00;99.90;;;;;;5317575;26;20571;-72
2024/04/17 03:11:00;;;;;;;1.80;1.33;;;5.90;99.90;;;;;;5335027;26;20230;-72
2024/04/17 03:13:26;;;;;;;0.90;0.90;;;5.80;99.90;;;;;;5329348;26;20226;-71
2024/04/17 03:15:52;;;;;;;1.63;1.53;;;5.80;99.90;;;;;;5337005;26;20516;-72
2024/04/17 03:18:18;;;;;;;3.13;1.47;;;5.80;99.90;;;;;;5343692;26;20520;-72
2024/04/17 03:20:43;;;;;;;2.17;1.20;;;5.80;99.90;;;;;;5339913;26;20277;-72
2024/04/17 03:23:11;;;;;;;1.40;1.30;;;5.80;99.90;;;;;;5312489;26;20264;-72
2024/04/17 03:25:36;;;;;;;1.50;1.40;;;5.80;99.90;;;;;;5345623;26;20297;-71
2024/04/17 03:28:02;;;;;;;1.10;1.00;;;5.70;99.90;;;;;;5332340;26;20515;-71
2024/04/17 03:30:27;;;;;;;1.03;0.93;;;5.70;99.90;;;;;;5333631;26;20225;-71
2024/04/17 03:32:53;;;;;;;1.20;1.10;;;5.60;99.90;;;;;;5336478;26;20777;-71
2024/04/17 03:35:18;;;;;;;1.90;1.13;;;5.60;99.90;;;;;;5334344;26;20237;-71
2024/04/17 03:37:44;;;;;;;8.50;1.60;;;5.70;99.90;;;;;;5338549;26;20266;-71
2024/04/17 03:40:10;;;;;;;1.10;1.00;;;5.70;99.90;;;;;;5318475;26;20233;-68
2024/04/17 03:42:36;;;;;;;1.63;1.40;;;5.80;99.90;;;;;;5347385;26;20244;-71
2024/04/17 03:45:02;;;;;;;1.20;1.00;;;5.90;99.90;;;;;;5337407;26;20817;-72
2024/04/17 03:47:28;;;;;;;1.20;1.10;;;5.90;99.90;;;;;;5337740;26;20604;-71
2024/04/17 03:49:53;;;;;;;1.30;1.20;;;5.80;99.90;;;;;;5321984;26;20475;-71
2024/04/17 03:52:19;;;;;;;2.63;1.80;;;5.80;99.90;;;;;;5312226;26;20272;-69
2024/04/17 03:54:44;;;;;;;2.40;2.20;;;5.80;99.90;;;;;;5324178;26;20236;-72
2024/04/17 03:57:10;;;;;;;4.30;3.50;;;5.80;99.90;;;;;;5328115;26;20237;-70
2024/04/17 03:59:35;;;;;;;4.23;3.83;;;5.80;99.90;;;;;;5333140;26;20643;-67
2024/04/17 04:02:05;;;;;;;4.00;3.60;;;5.70;99.90;;;;;;5327395;26;20727;-71
2024/04/17 04:04:31;;;;;;;4.60;4.20;;;5.70;99.90;;;;;;5343248;26;20237;-71
2024/04/17 04:06:57;;;;;;;4.53;4.07;;;5.60;99.90;;;;;;5344951;26;20584;-71
2024/04/17 04:09:23;;;;;;;4.27;3.90;;;5.60;99.90;;;;;;5343603;26;20237;-71
2024/04/17 04:11:49;;;;;;;4.67;4.27;;;5.60;99.90;;;;;;5346246;26;20213;-72
2024/04/17 04:14:15;;;;;;;4.53;4.13;;;5.60;99.90;;;;;;5324873;26;20279;-72
2024/04/17 04:16:41;;;;;;;5.93;5.40;;;5.70;99.90;;;;;;5324621;26;20457;-72
2024/04/17 04:19:06;;;;;;;4.63;4.23;;;5.60;99.90;;;;;;5335699;26;20464;-72
2024/04/17 04:21:32;;;;;;;5.20;4.70;;;5.60;99.90;;;;;;5329608;26;20225;-72
2024/04/17 04:23:57;;;;;;;5.10;4.70;;;5.60;99.90;;;;;;5323344;26;20284;-72
2024/04/17 04:26:23;;;;;;;6.03;4.67;;;5.70;99.90;;;;;;5331579;26;20221;-71
2024/04/17 04:28:48;;;;;;;5.40;4.97;;;5.70;99.90;;;;;;5328207;26;20594;-71
2024/04/17 04:31:15;;;;;;;5.57;5.07;;;5.80;99.90;;;;;;5313357;26;20238;-72
2024/04/17 04:33:40;;;;;;;5.77;5.23;;;5.80;99.90;;;;;;5328342;26;20583;-72
2024/04/17 04:36:06;;;;;;;5.50;5.00;;;5.80;99.90;;;;;;5324985;26;20323;-72
2024/04/17 04:38:32;;;;;;;5.70;5.07;;;5.80;99.90;;;;;;5343967;26;20232;-72
2024/04/17 04:40:57;;;;;;;5.47;4.97;;;5.90;99.90;;;;;;5325241;26;20276;-70
2024/04/17 04:43:23;;;;;;;5.13;4.63;;;5.80;99.90;;;;;;5330583;26;20221;-71
2024/04/17 04:45:49;;;;;;;6.33;5.20;;;5.90;99.90;;;;;;5345620;26;20232;-71
2024/04/17 04:48:15;;;;;;;6.10;5.50;;;5.90;99.90;;;;;;5345548;26;20268;-70
2024/04/17 04:50:40;;;;;;;7.53;6.10;;;5.80;99.90;;;;;;5341465;26;21019;-68
2024/04/17 04:53:06;;;;;;;8.93;5.57;;;5.70;99.90;;;;;;5327118;26;20238;-69
2024/04/17 04:55:32;;;;;;;6.00;5.27;;;5.70;99.90;;;;;;5322571;26;20701;-69
2024/04/17 04:57:57;;;;;;;5.60;5.00;;;5.70;99.90;;;;;;5311106;26;20222;-69
2024/04/17 05:00:23;;;;;;;6.10;5.50;;;5.70;99.90;;;;;;5313689;26;20441;-68
2024/04/17 05:02:48;;;;;;;6.53;5.73;;;5.70;99.90;;;;;;5345832;26;20752;-69
2024/04/17 05:05:14;;;;;;;6.47;5.47;;;5.70;99.90;;;;;;5345205;26;20233;-69
2024/04/17 05:07:39;;;;;;;6.07;5.40;;;5.70;99.90;;;;;;5345418;26;20213;-68
2024/04/17 05:10:05;;;;;;;6.00;5.40;;;5.80;99.90;;;;;;5345358;26;20209;-69
2024/04/17 05:12:31;;;;;;;7.20;5.40;;;5.80;99.90;;;;;;5341508;26;20269;-69
2024/04/17 05:14:56;;;;;;;6.13;5.53;;;5.80;99.90;;;;;;5343720;26;20719;-69
2024/04/17 05:17:22;;;;;;;5.47;5.03;;;5.90;99.90;;;;;;5345205;26;20217;-69
2024/04/17 05:19:48;;;;;;;7.90;5.40;;;5.90;99.90;;;;;;5344996;26;20217;-69
2024/04/17 05:22:14;;;;;;;5.90;5.17;;;6.00;99.90;;;;;;5322362;26;20226;-69
2024/04/17 05:24:39;;;;;;;6.10;4.80;;;5.90;99.90;;;;;;5310868;26;20887;-69
2024/04/17 05:27:05;;;;;;;5.73;5.10;;;6.00;99.90;;;;;;5310991;26;20210;-69
2024/04/17 05:29:30;;;;;;;5.43;4.93;;;6.00;99.90;;;;;;5310994;26;20268;-69
2024/04/17 05:31:56;;;;;;;6.37;5.77;;;6.00;99.90;;;;;;5310601;26;20321;-69
2024/04/17 05:34:21;;;;;;;6.23;5.70;;;6.00;99.90;;;;;;5311141;26;20219;-69
2024/04/17 05:36:47;;;;;;;7.63;6.07;;;6.10;99.90;;;;;;5310597;26;20231;-69
2024/04/17 05:39:12;;;;;;;7.50;5.83;;;6.20;99.90;;;;;;5331334;26;20225;-69
2024/04/17 05:41:38;;;;;;;8.77;6.30;;;6.20;99.90;;;;;;5344412;26;20229;-69
2024/04/17 05:44:03;;;;;;;7.03;6.33;;;6.30;99.90;;;;;;5342358;26;20339;-70
2024/04/17 05:46:29;;;;;;;5.87;5.37;;;6.30;99.90;;;;;;5346988;26;20608;-67
2024/04/17 05:48:54;;;;;;;7.40;6.40;;;6.30;99.90;;;;;;5315085;26;20285;-69
2024/04/17 05:51:20;;;;;;;5.83;5.30;;;6.30;99.90;;;;;;5313350;26;20260;-69
2024/04/17 05:53:46;;;;;;;8.53;6.97;;;6.30;99.90;;;;;;5313486;26;20264;-68
2024/04/17 05:56:11;;;;;;;7.93;7.13;;;6.30;99.90;;;;;;5313534;26;20292;-67
2024/04/17 05:58:37;;;;;;;7.53;6.63;;;6.30;99.90;;;;;;5315523;26;20281;-69
2024/04/17 06:01:03;;;;;;;7.90;7.07;;;6.30;99.90;;;;;;5313170;26;20214;-69
2024/04/17 06:03:28;;;;;;;9.40;7.93;;;6.30;99.90;;;;;;5313298;26;20210;-68
2024/04/17 06:05:54;;;;;;;8.67;6.80;;;6.30;99.90;;;;;;5313304;26;20575;-69
2024/04/17 06:08:19;;;;;;;7.23;6.53;;;6.40;99.90;;;;;;5335015;26;20221;-69
2024/04/17 06:10:45;;;;;;;9.17;7.13;;;6.40;99.90;;;;;;5345943;26;20225;-68
2024/04/17 06:13:11;;;;;;;8.40;7.40;;;6.50;99.90;;;;;;5345200;26;20679;-69
2024/04/17 06:15:36;;;;;;;9.43;8.43;;;6.50;99.90;;;;;;5347744;26;20295;-69
2024/04/17 06:18:06;;;;;;;8.57;7.30;;;6.60;99.90;;;;;;5329873;26;20276;-68
2024/04/17 06:20:31;;;;;;;9.23;7.80;;;6.70;99.90;;;;;;5312999;26;20218;-69
2024/04/17 06:22:57;;;;;;;9.47;8.47;;;6.70;99.90;;;;;;5311469;26;20452;-69
2024/04/17 06:25:22;;;;;;;8.00;7.20;;;6.70;99.90;;;;;;5313110;26;20330;-69
2024/04/17 06:27:48;;;;;;;9.13;8.23;;;6.70;99.90;;;;;;5314818;26;20260;-69
2024/04/17 06:30:14;;;;;;;10.30;7.70;;;6.70;99.90;;;;;;5313057;26;20222;-69
2024/04/17 06:32:39;;;;;;;9.30;8.40;;;6.70;99.90;;;;;;5335900;26;20330;-68
2024/04/17 06:35:05;;;;;;;9.20;8.30;;;6.70;99.90;;;;;;5345759;26;20245;-67
2024/04/17 06:37:31;;;;;;;8.50;7.70;;;6.90;99.90;;;;;;5338098;26;21066;-69
2024/04/17 06:39:56;;;;;;;9.97;8.97;;;7.00;99.90;;;;;;5312904;26;20668;-69
2024/04/17 06:42:21;;;;;;;8.77;7.97;;;7.10;99.90;;;;;;5314992;26;20226;-68
2024/04/17 06:44:47;;;;;;;8.83;7.93;;;7.20;99.90;;;;;;5312801;26;20335;-69
2024/04/17 06:47:14;;;;;;;9.30;7.40;;;7.10;99.90;;;;;;5316298;26;20238;-69
2024/04/17 06:49:40;;;;;;;9.60;8.60;;;7.10;99.90;;;;;;5347412;26;20220;-68
2024/04/17 06:52:06;;;;;;;9.23;8.30;;;7.10;99.90;;;;;;5347345;26;20448;-69
2024/04/17 06:54:31;;;;;;;8.43;6.90;;;7.10;99.90;;;;;;5347635;26;20307;-69
2024/04/17 06:56:57;;;;;;;8.63;6.80;;;7.00;99.90;;;;;;5346286;26;20260;-69
2024/04/17 06:59:23;;;;;;;10.00;7.53;;;6.90;99.90;;;;;;5344307;26;20218;-69
2024/04/17 07:01:49;;;;;;;7.27;6.50;;;6.90;99.90;;;;;;5346653;26;20459;-69
2024/04/17 07:04:14;;;;;;;9.50;7.67;;;7.00;99.90;;;;;;5347205;26;20228;-69
2024/04/17 07:06:40;;;;;;;6.13;5.53;;;7.00;99.90;;;;;;5347005;26;20210;-69
2024/04/17 07:09:06;;;;;;;7.07;6.40;;;7.10;99.90;;;;;;5318162;26;20222;-68
2024/04/17 07:11:32;;;;;;;6.63;6.03;;;7.10;99.90;;;;;;5312741;26;20261;-69
2024/04/17 07:13:58;;;;;;;6.93;6.23;;;7.20;99.90;;;;;;5314875;26;20301;-69
2024/04/17 07:16:24;;;;;;;7.43;5.97;;;7.30;99.90;;;;;;5343708;26;20868;-69
2024/04/17 07:18:49;;;;;;;5.80;5.20;;;7.30;99.90;;;;;;5346882;26;20517;-69
2024/04/17 07:21:15;;;;;;;6.27;5.67;;;7.20;99.90;;;;;;5346791;26;20213;-68
2024/04/17 07:23:41;;;;;;;5.00;4.50;;;7.30;99.90;;;;;;5347009;26;20221;-69
2024/04/17 07:26:06;;;;;;;6.80;6.20;;;7.30;99.90;;;;;;5320442;26;20577;-69
2024/04/17 07:28:32;;;;;;;5.63;5.13;;;7.30;99.90;;;;;;5314300;26;20238;-69
2024/04/17 07:30:57;;;;;;;4.97;4.47;;;7.30;99.90;;;;;;5312035;26;20757;-69
2024/04/17 07:33:23;;;;;;;6.10;5.30;;;7.20;99.90;;;;;;5312686;26;20218;-69
2024/04/17 07:35:58;;;;;;;4.37;3.97;;;7.10;99.90;;;;;;5332939;26;20225;-68
2024/04/17 07:38:23;;;;;;;3.90;3.60;;;6.90;99.90;;;;;;5346634;26;20205;-70
2024/04/17 07:41:02;;;;;;;3.47;3.17;;;6.70;99.90;;;;;;5343984;26;20576;-69
2024/04/17 07:43:31;;;;;;;3.60;3.30;;;6.70;99.90;;;;;;5346651;26;20243;-69
2024/04/17 07:46:01;;;;;;;4.50;4.10;;;6.70;99.90;;;;;;5346476;26;20495;-69
2024/04/17 07:48:27;;;;;;;4.70;4.30;;;6.70;99.90;;;;;;5346683;26;20496;-69
2024/04/17 07:50:53;;;;;;;4.13;3.27;;;6.70;99.90;;;;;;5346005;26;20459;-69
2024/04/17 07:53:19;;;;;;;4.10;3.70;;;6.60;99.90;;;;;;5310411;26;20461;-69
2024/04/17 07:55:44;;;;;;;3.30;3.00;;;6.60;99.90;;;;;;5389660;22;20268;-70
2024/04/17 07:58:10;;;;;;;3.57;3.27;;;6.60;99.90;;;;;;5351790;26;20264;-70
2024/04/17 08:00:35;;;;;;;3.97;3.60;;;6.60;99.90;;;;;;5346266;26;20321;-69
2024/04/17 08:03:02;;;;;;;4.53;3.87;;;6.60;99.90;;;;;;5376775;26;20329;-70
2024/04/17 08:05:27;;;;;;;5.40;4.90;;;6.70;99.90;;;;;;5409079;26;20219;-70
2024/04/17 08:07:54;;;;;;;4.73;4.33;;;6.60;99.90;;;;;;5414970;26;20543;-70
2024/04/17 08:10:19;;;;;;;5.60;5.10;;;6.50;99.90;;;;;;5416260;26;20637;-69
2024/04/17 08:12:47;;;;;;;6.10;5.50;;;6.50;99.90;;;;;;5416542;26;20445;-69
2024/04/17 08:15:13;;;;;;;7.37;6.47;;;6.50;99.90;;;;;;5416623;26;20751;-70
2024/04/17 08:17:39;;;;;;;7.17;6.47;;;6.60;99.90;;;;;;5416547;26;20437;-69
2024/04/17 08:20:05;;;;;;;5.87;5.27;;;6.80;99.90;;;;;;5416434;26;20204;-69
2024/04/17 08:22:30;;;;;;;7.53;6.73;;;6.90;99.90;;;;;;5416353;26;20865;-69
2024/04/17 08:24:56;;;;;;;6.83;6.23;;;7.10;99.90;;;;;;5416270;26;20505;-70
2024/04/17 08:27:22;;;;;;;7.23;6.53;;;7.20;99.90;;;;;;5416095;26;20227;-70
2024/04/17 08:29:47;;;;;;;7.80;6.47;;;7.30;99.90;;;;;;5416565;26;20231;-69
2024/04/17 08:32:13;;;;;;;7.27;6.57;;;7.50;99.90;;;;;;5416276;26;20230;-70
2024/04/17 08:34:38;;;;;;;7.80;7.10;;;7.60;99.90;;;;;;5416508;26;20593;-69
2024/04/17 08:37:05;;;;;;;9.50;6.27;;;7.70;99.90;;;;;;5416612;26;20249;-70
2024/04/17 08:39:31;;;;;;;7.60;6.70;;;7.80;99.90;;;;;;5416330;26;20207;-70
2024/04/17 08:42:05;;;;;;;9.97;8.43;;;8.40;99.90;;;;;;5415796;26;20457;-69
2024/04/17 08:44:34;;;;;;;8.33;7.17;;;8.60;99.90;;;;;;5416213;26;20219;-70
2024/04/17 08:47:02;;;;;;;9.80;7.90;;;9.10;99.90;;;;;;5416187;26;20441;-70
2024/04/17 08:49:30;;;;;;;11.83;7.83;;;9.50;99.90;;;;;;5416343;26;20497;-70
2024/04/17 08:51:57;;;;;;;7.37;5.63;;;9.90;99.90;;;;;;5415953;26;21099;-69
2024/04/17 08:54:23;;;;;;;6.87;6.20;;;10.00;99.90;;;;;;5416102;26;20920;-69
2024/04/17 08:56:48;;;;;;;7.43;6.73;;;9.90;99.90;;;;;;5415672;26;20497;-69
2024/04/17 08:59:14;;;;;;;6.80;6.23;;;9.70;99.90;;;;;;5414387;26;20660;-69
2024/04/17 09:01:41;;;;;;;7.10;6.40;;;9.90;99.90;;;;;;5415516;26;20596;-69
2024/04/17 09:04:07;;;;;;;7.40;6.10;;;10.20;99.90;;;;;;5416233;26;20238;-70
2024/04/17 09:06:33;;;;;;;7.17;6.47;;;10.10;99.90;;;;;;5415751;26;20968;-68
2024/04/17 09:09:04;;;;;;;6.00;5.50;;;9.90;99.90;;;;;;5414279;26;20303;-69
2024/04/17 09:11:30;;;;;;;6.30;5.70;;;9.90;99.90;;;;;;5415413;26;20460;-69
2024/04/17 09:13:55;;;;;;;9.03;6.40;;;9.80;99.90;;;;;;5415784;26;20913;-70
2024/04/17 09:16:20;;;;;;;6.63;6.03;;;9.40;99.90;;;;;;5415843;26;20219;-68
2024/04/17 09:18:48;;;;;;;6.90;6.10;;;8.90;99.90;;;;;;5415742;26;20218;-69
2024/04/17 09:21:14;;;;;;;7.07;6.33;;;8.60;99.90;;;;;;5414335;26;20307;-69
2024/04/17 09:23:40;;;;;;;6.47;5.87;;;8.20;99.90;;;;;;5415387;26;20981;-69
2024/04/17 09:26:16;;;;;;;7.13;5.70;;;8.20;99.90;;;;;;5415711;26;21027;-70
2024/04/17 09:28:43;;;;;;;6.53;5.93;;;8.20;99.90;;;;;;5415132;26;20273;-69
2024/04/17 09:31:10;;;;;;;6.73;6.10;;;8.10;99.90;;;;;;5415412;26;20553;-69
2024/04/17 09:33:42;;;;;;;7.20;6.47;;;8.10;99.90;;;;;;5415805;26;20513;-70
2024/04/17 09:36:08;;;;;;;6.70;6.20;;;8.00;99.90;;;;;;5415658;26;20440;-70
2024/04/17 09:38:33;;;;;;;6.53;6.03;;;8.10;99.90;;;;;;5415403;26;20900;-70
2024/04/17 09:41:00;;;;;;;7.60;6.53;;;8.10;99.90;;;;;;5415271;26;20315;-69
2024/04/17 09:43:27;;;;;;;6.87;6.07;;;8.20;99.90;;;;;;5413097;26;20283;-69
2024/04/17 09:46:06;;;;;;;7.93;7.10;;;8.40;99.90;;;;;;5415266;26;20453;-69
2024/04/17 09:48:36;;;;;;;7.70;6.90;;;8.40;99.90;;;;;;5415058;26;20437;-69
2024/04/17 09:51:07;;;;;;;8.00;7.30;;;8.30;99.90;;;;;;5415346;26;20501;-69
2024/04/17 09:53:35;;;;;;;8.80;7.90;;;8.40;99.90;;;;;;5415093;26;20452;-70
2024/04/17 09:56:02;;;;;;;12.60;10.17;;;8.20;99.90;;;;;;5415208;26;20501;-69
2024/04/17 09:58:32;;;;;;;9.50;8.27;;;8.40;99.90;;;;;;5415425;26;20757;-70
2024/04/17 10:01:06;;;;;;;13.90;10.80;;;8.50;99.90;;;;;;5414862;26;20797;-70
2024/04/17 10:03:32;;;;;;;13.83;10.17;;;8.60;99.90;;;;;;5414918;26;20457;-69
2024/04/17 10:06:01;;;;;;;9.90;9.00;;;8.60;99.90;;;;;;5414626;26;20503;-70
2024/04/17 10:08:32;;;;;;;10.30;9.40;;;8.60;99.90;;;;;;5414607;26;20489;-69
2024/04/17 10:10:58;;;;;;;10.90;9.50;;;8.50;99.90;;;;;;5414701;26;20448;-69
2024/04/17 10:13:25;;;;;;;10.83;9.87;;;8.50;99.90;;;;;;5414562;26;20461;-69
2024/04/17 10:15:51;;;;;;;10.77;9.73;;;8.50;99.90;;;;;;5415078;26;20476;-69
2024/04/17 10:18:17;;;;;;;9.90;8.90;;;8.80;99.90;;;;;;5415162;26;20445;-70
2024/04/17 10:20:42;;;;;;;9.20;8.50;;;9.00;99.90;;;;;;5414522;26;20493;-68
2024/04/17 10:23:09;;;;;;;8.00;7.40;;;9.30;99.90;;;;;;5414708;26;20568;-69
2024/04/17 10:25:48;;;;;;;7.13;6.53;;;9.30;99.90;;;;;;5414695;26;20336;-69
2024/04/17 10:28:17;;;;;;;8.83;5.57;;;9.50;99.90;;;;;;5392353;26;20817;-70
2024/04/17 10:30:43;;;;;;;7.00;5.13;;;9.70;99.90;;;;;;5377214;26;20454;-69
2024/04/17 10:33:20;;;;;;;8.00;6.47;;;10.30;99.90;;;;;;5404175;26;20449;-70
2024/04/17 10:35:48;;;;;;;8.40;7.70;;;10.70;99.90;;;;;;5418110;26;20435;-69
2024/04/17 10:38:14;;;;;;;6.30;5.80;;;10.70;99.90;;;;;;5418040;26;20437;-70
2024/04/17 10:40:40;;;;;;;8.07;7.27;;;11.00;99.90;;;;;;5417913;26;20759;-69
2024/04/17 10:43:10;;;;;;;8.87;7.97;;;10.60;99.90;;;;;;5417608;26;20880;-69
2024/04/17 10:45:39;;;;;;;9.10;8.40;;;11.10;99.90;;;;;;5418071;26;20266;-70
2024/04/17 10:48:16;;;;;;;10.27;9.40;;;11.20;99.90;;;;;;5417909;26;20444;-70
2024/04/17 10:50:42;;;;;;;9.40;8.60;;;11.20;99.90;;;;;;5417689;26;20435;-69
2024/04/17 10:53:09;;;;;;;9.50;8.80;;;11.90;99.90;;;;;;5417667;26;20472;-69
2024/04/17 10:55:35;;;;;;;9.40;8.60;;;12.40;99.90;;;;;;5417765;26;20445;-69
2024/04/17 10:58:02;;;;;;;8.90;8.20;;;12.40;99.90;;;;;;5417292;26;20496;-69
2024/04/17 11:00:29;;;;;;;8.53;7.83;;;12.30;99.90;;;;;;5417813;26;20642;-69
2024/04/17 11:02:54;;;;;;;10.33;9.43;;;12.10;99.90;;;;;;5417549;26;20775;-69
2024/04/17 11:05:23;;;;;;;9.00;8.07;;;12.20;99.90;;;;;;5417550;26;20496;-70
2024/04/17 11:07:49;;;;;;;9.33;8.53;;;12.00;99.90;;;;;;5417743;26;20614;-69
2024/04/17 11:10:14;;;;;;;9.83;8.40;;;11.70;99.90;;;;;;5417204;26;20452;-70
2024/04/17 11:12:40;;;;;;;8.93;8.23;;;11.30;99.90;;;;;;5417324;26;20755;-69
2024/04/17 11:15:06;;;;;;;8.50;7.70;;;11.10;99.90;;;;;;5417494;26;20312;-69
2024/04/17 11:17:31;;;;;;;9.50;6.87;;;11.50;99.90;;;;;;5417343;26;20203;-69
2024/04/17 11:19:57;;;;;;;6.77;6.10;;;12.70;99.90;;;;;;5416958;26;20223;-69
2024/04/17 11:22:23;;;;;;;8.20;7.50;;;13.30;99.90;;;;;;5417434;26;20202;-70
2024/04/17 11:24:49;;;;;;;10.83;7.10;;;14.40;99.90;;;;;;5417333;26;20215;-69
2024/04/17 11:27:16;;;;;;;6.20;5.60;;;14.30;99.90;;;;;;5417391;26;20250;-69
2024/04/17 11:29:48;;;;;;;7.90;7.20;;;14.70;99.90;;;;;;5416790;26;20444;-68
2024/04/17 11:32:14;;;;;;;7.93;5.87;;;14.60;99.90;;;;;;5417634;26;20791;-69
2024/04/17 11:34:40;;;;;;;6.77;5.00;;;14.90;99.90;;;;;;5417267;26;20456;-68
2024/04/17 11:37:06;;;;;;;6.37;5.83;;;14.40;99.90;;;;;;5416971;26;20969;-68
2024/04/17 11:39:33;;;;;;;9.33;5.97;;;13.70;99.90;;;;;;5417108;26;20274;-69
2024/04/17 11:42:00;;;;;;;9.43;5.63;;;13.40;99.90;;;;;;5417145;26;20497;-70
2024/04/17 11:44:26;;;;;;;5.80;5.30;;;13.10;99.90;;;;;;5416127;26;20456;-69
2024/04/17 11:46:53;;;;;;;7.10;6.00;;;13.00;99.90;;;;;;5416837;26;20433;-69
2024/04/17 11:49:19;;;;;;;5.57;5.17;;;13.10;99.90;;;;;;5416913;26;20449;-69
2024/04/17 11:51:44;;;;;;;6.63;6.03;;;13.00;99.90;;;;;;5417100;26;20445;-69
2024/04/17 11:54:10;;;;;;;9.40;7.00;;;12.50;99.90;;;;;;5417043;26;20231;-70
2024/04/17 11:56:36;;;;;;;7.00;6.30;;;12.20;99.90;;;;;;5416897;26;20332;-69
2024/04/17 11:59:02;;;;;;;7.00;6.30;;;12.10;99.90;;;;;;5416650;26;20219;-70
2024/04/17 12:01:27;;;;;;;7.13;5.80;;;12.00;99.90;;;;;;5416907;26;20445;-69
2024/04/17 12:03:53;;;;;;;7.53;5.60;;;12.10;99.90;;;;;;5416882;26;20256;-69
2024/04/17 12:06:18;;;;;;;6.77;5.97;;;12.20;99.90;;;;;;5416716;26;20734;-70
2024/04/17 12:08:45;;;;;;;8.17;5.40;;;12.30;99.90;;;;;;5416310;26;20331;-69
2024/04/17 12:11:10;;;;;;;8.03;5.50;;;13.10;99.90;;;;;;5416654;26;20319;-69
2024/04/17 12:13:36;;;;;;;5.57;5.00;;;13.70;99.90;;;;;;5416729;26;20449;-70
2024/04/17 12:16:02;;;;;;;6.10;5.13;;;13.60;99.90;;;;;;5417034;26;20253;-69
2024/04/17 12:18:28;;;;;;;5.40;4.90;;;13.00;99.90;;;;;;5416263;26;20290;-70
2024/04/17 12:20:53;;;;;;;7.10;5.13;;;12.60;99.90;;;;;;5416552;26;20437;-69
2024/04/17 12:23:19;;;;;;;5.50;5.10;;;12.40;99.90;;;;;;5417020;26;20207;-69
2024/04/17 12:28:30;;;;;;;6.77;4.80;;;12.60;99.90;;;;;;5416180;26;20555;-69
2024/04/17 12:30:56;;;;;;;5.30;4.80;;;12.10;99.90;;;;;;5416427;26;20489;-70
2024/04/17 12:33:22;;;;;;;7.60;4.80;;;11.90;99.90;;;;;;5416631;26;20960;-69
2024/04/17 12:35:48;;;;;;;5.47;4.67;;;12.00;99.90;;;;;;5416662;26;20262;-70
2024/04/17 12:38:13;;;;;;;7.30;6.67;;;12.30;99.90;;;;;;5416157;26;20453;-70
2024/04/17 12:40:39;;;;;;;7.77;5.70;;;12.30;99.90;;;;;;5416573;26;20206;-70
2024/04/17 12:43:06;;;;;;;6.37;5.80;;;11.90;99.90;;;;;;5416182;26;20555;-69
2024/04/17 12:45:32;;;;;;;9.80;5.47;;;11.70;99.90;;;;;;5408473;26;20228;-69
2024/04/17 12:47:58;;;;;;;5.80;4.80;;;11.20;99.90;;;;;;5384141;26;20446;-69
2024/04/17 12:50:24;;;;;;;4.87;4.47;;;10.70;99.90;;;;;;5415981;26;20558;-70
2024/04/17 12:52:53;;;;;;;8.13;5.87;;;10.40;99.90;;;;;;5416121;26;20444;-69